Горин

Карта отелей и гостиниц, располагающихся рядом с аэропортом Горин :



Горин Хабаровский край 51° 10' 18.9588" N, 136° 38' 5.5212" E

Горин Хабаровский край 51° 10' 18.9588" N, 136° 38' 5.5212" E
Код аэродрома ИКАО: 
ZC34
Код аэродрома RU: 
ЗЦ34
Координаты: 
N51.17193° E136.63487°
Превышение над уровнем моря : 
114
Основная полоса: 
02/20
Курс магнитный: 
024/204
Длина основной ВПП: 
3120
Ширина основной ВПП: 
100
Покрытие основной ВПП: 
Твёрдое (асфальтобетон)
Тип: 
Аэродром
Освещение ВПП: 
Нет
Класс аэродрома: 
Статус: 
Недействующий
Принадлежность: 
МО
Сайт: 
E-mail аэродрома: 
Страна: 
Россия
Регион: 
Хабаровский край
Город: 
Дополнительная информация: 
ВПП покрыта растительностью. Посадка невозможна.

Найти трансфер

С помощью этой формы Вы можете найти трансфер из аэропорта Горин в город, аэропорт или вокзал:

Карта места

Javascript is required to view this map.

Погода в аэропортах:

Авиационная погода в Москве - Остафьево

Регион: 
Погода METAR: 
UUMO 311300Z 34007MPS 320V020 4000 -SHSN BKN013 OVC033CB M03/M06 Q1012 R08/550242 NOSIG RMK QFE744/0993
Время наблюдения: 
2020-03-31T13:00:00Z
Температура C: 
-3.0
Точка росы: 
-6.0
Направление ветра: 
340
Скорость ветра: 
14
Метеорологическая видимость: 
2.49
Явления погоды: 
-SHSN
Условия полета: 
IFR
Аэропорт подробнее: 

Авиационная погода в Раменское

Регион: 
Погода METAR: 
UUBW 311300Z 32007MPS 3600 -SN OVC020 M03/M05 Q1012 R30/490237 NOSIG
Время наблюдения: 
2020-03-31T13:00:00Z
Температура C: 
-3.0
Точка росы: 
-5.0
Направление ветра: 
320
Скорость ветра: 
14
Метеорологическая видимость: 
2.24
Явления погоды: 
-SN
Условия полета: 
IFR
Аэропорт подробнее: 

Авиационная погода в Каяани

Регион: 
Погода METAR: 
EFKI 311250Z AUTO 19016G27KT 160V230 1100 R25/1500U SN OVC012 M04/M06 Q0998
Время наблюдения: 
2020-03-31T12:50:00Z
Температура C: 
-4.0
Точка росы: 
-6.0
Направление ветра: 
190
Скорость ветра: 
16
Метеорологическая видимость: 
0.68
Явления погоды: 
SN
Условия полета: 
LIFR

Авиационная погода в Куусамо

Регион: 
Погода METAR: 
EFKS 311250Z AUTO 19018G28KT 0650 R30/1100D SN OVC012 M07/M08 Q0993
Время наблюдения: 
2020-03-31T12:50:00Z
Температура C: 
-7.0
Точка росы: 
-8.0
Направление ветра: 
190
Скорость ветра: 
18
Метеорологическая видимость: 
0.4
Явления погоды: 
SN
Условия полета: 
LIFR